createdAt,value
2022-10-03T00:00:40.948Z,3.77
2022-10-03T00:03:43.570Z,3.53
2022-10-03T00:06:47.335Z,3.97
2022-10-03T00:09:56.569Z,3.57
2022-10-03T00:13:01.917Z,5.67
2022-10-03T00:16:04.246Z,4.63
2022-10-03T00:19:01.912Z,4.45
2022-10-03T00:22:01.559Z,5.20
2022-10-03T00:25:07.315Z,13.33
2022-10-03T00:28:17.850Z,3.83
2022-10-03T00:31:13.646Z,3.80
2022-10-03T00:34:19.862Z,4.03
2022-10-03T00:37:30.327Z,4.77
2022-10-03T00:40:56.971Z,3.77
2022-10-03T00:44:18.905Z,4.63
2022-10-03T00:47:48.409Z,3.60
2022-10-03T00:51:01.126Z,4.77
2022-10-03T00:57:03.625Z,4.23
2022-10-03T01:00:06.280Z,4.17
2022-10-03T01:03:20.046Z,4.70
2022-10-03T01:06:20.713Z,4.03
2022-10-03T01:09:42.549Z,4.47
2022-10-03T01:12:57.504Z,4.43
2022-10-03T01:15:56.190Z,5.63
2022-10-03T01:18:59.459Z,6.73
2022-10-03T01:22:00.103Z,6.10
2022-10-03T01:24:58.687Z,4.43
2022-10-03T01:28:15.525Z,3.93
2022-10-03T01:31:09.667Z,6.23
2022-10-03T01:34:07.014Z,5.37
2022-10-03T01:37:11.032Z,5.93
2022-10-03T01:40:08.512Z,4.40
2022-10-03T01:43:06.641Z,4.77
2022-10-03T01:46:06.476Z,5.73
2022-10-03T01:49:06.819Z,5.10
2022-10-03T01:52:04.172Z,5.20
2022-10-03T01:55:03.169Z,4.03
2022-10-03T01:58:00.519Z,4.40
2022-10-03T02:00:59.750Z,4.40
2022-10-03T02:03:55.648Z,4.93
2022-10-03T02:06:58.736Z,8.23
2022-10-03T02:09:59.778Z,7.77
2022-10-03T02:13:00.412Z,6.53
2022-10-03T02:16:02.308Z,5.70
2022-10-03T02:18:58.403Z,5.10
2022-10-03T02:21:52.474Z,15.30
2022-10-03T02:24:50.961Z,6.20
2022-10-03T02:28:02.812Z,7.17
2022-10-03T02:31:15.761Z,5.17
2022-10-03T02:34:45.599Z,5.50
2022-10-03T02:38:01.002Z,6.17
2022-10-03T02:41:18.811Z,4.57
2022-10-03T02:44:36.446Z,5.10
2022-10-03T02:48:31.198Z,6.17
2022-10-03T02:51:46.124Z,4.67
2022-10-03T02:54:57.400Z,4.87
2022-10-03T02:58:16.462Z,4.97
2022-10-03T03:01:49.997Z,6.70
2022-10-03T03:05:17.283Z,8.47
2022-10-03T03:08:43.147Z,6.20
2022-10-03T03:11:58.936Z,6.90
2022-10-03T03:15:26.906Z,7.50
2022-10-03T03:18:28.331Z,5.37
2022-10-03T03:21:27.723Z,5.27
2022-10-03T03:24:42.429Z,4.17
2022-10-03T03:27:49.574Z,7.77
2022-10-03T03:30:44.718Z,6.57
2022-10-03T03:33:41.050Z,7.40
2022-10-03T03:36:39.246Z,5.90
2022-10-03T03:39:49.282Z,6.17
2022-10-03T03:42:49.894Z,5.07
2022-10-03T03:45:53.888Z,5.80
2022-10-03T03:49:09.610Z,6.30
2022-10-03T03:52:08.757Z,6.33
2022-10-03T03:55:17.841Z,5.53
2022-10-03T03:58:32.747Z,7.33
2022-10-03T04:01:46.195Z,9.07
2022-10-03T04:04:56.605Z,8.43
2022-10-03T04:08:11.748Z,6.10
2022-10-03T04:11:16.512Z,6.47
2022-10-03T04:14:39.851Z,6.73
2022-10-03T04:18:02.007Z,7.37
2022-10-03T04:21:01.590Z,7.70
2022-10-03T04:24:07.783Z,7.13
2022-10-03T04:27:11.897Z,7.57
2022-10-03T04:30:08.851Z,5.40
2022-10-03T04:33:19.715Z,6.80
2022-10-03T04:36:38.576Z,7.33
2022-10-03T04:39:36.438Z,8.97
2022-10-03T04:42:50.217Z,12.57
2022-10-03T04:46:00.394Z,7.93
2022-10-03T04:49:04.769Z,9.07
2022-10-03T04:52:00.283Z,6.70
2022-10-03T04:54:56.437Z,7.33
2022-10-03T04:57:53.251Z,6.90
2022-10-03T05:00:54.066Z,7.80
2022-10-03T05:04:05.587Z,7.50
2022-10-03T05:07:05.674Z,13.53
2022-10-03T05:09:58.658Z,11.67
2022-10-03T05:12:57.139Z,6.80
2022-10-03T05:15:57.251Z,10.93
2022-10-03T05:18:52.352Z,23.33
2022-10-03T05:21:49.263Z,25.63
2022-10-03T05:24:45.184Z,17.23
2022-10-03T05:27:44.994Z,14.40
2022-10-03T05:30:42.954Z,12.20
2022-10-03T05:33:44.738Z,15.00
2022-10-03T05:36:54.109Z,9.70
2022-10-03T05:39:53.716Z,9.87
2022-10-03T05:43:08.274Z,10.20
2022-10-03T05:46:08.077Z,9.37
2022-10-03T05:49:09.954Z,6.43
2022-10-03T05:52:22.875Z,6.28
2022-10-03T05:55:29.243Z,8.53
2022-10-03T05:58:46.051Z,6.77
2022-10-03T06:02:24.351Z,9.00
2022-10-03T06:05:23.170Z,5.67
2022-10-03T06:08:39.359Z,6.83
2022-10-03T06:11:57.393Z,7.37
2022-10-03T06:15:12.163Z,11.57
2022-10-03T06:18:12.573Z,9.70
2022-10-03T06:21:42.560Z,14.73
2022-10-03T06:25:03.420Z,15.57
2022-10-03T06:28:21.541Z,15.73
2022-10-03T06:31:41.894Z,16.40
2022-10-03T06:35:01.439Z,14.17
2022-10-03T06:38:22.753Z,12.30
2022-10-03T06:41:40.877Z,16.30
2022-10-03T06:45:01.495Z,18.93
2022-10-03T06:48:08.455Z,14.07
2022-10-03T06:51:17.674Z,15.67
2022-10-03T06:54:50.911Z,13.50
2022-10-03T06:58:16.733Z,15.97
2022-10-03T07:01:33.615Z,10.80
2022-10-03T07:05:05.721Z,9.20
2022-10-03T07:08:39.722Z,14.33
2022-10-03T07:11:49.379Z,9.47
2022-10-03T07:15:16.374Z,9.47
2022-10-03T07:18:34.622Z,9.37
2022-10-03T07:22:00.707Z,15.70
2022-10-03T07:25:20.221Z,9.00
2022-10-03T07:28:33.471Z,17.37
2022-10-03T07:31:35.751Z,13.40
2022-10-03T07:35:06.523Z,7.77
2022-10-03T07:38:49.798Z,7.10
2022-10-03T07:45:29.935Z,6.73
2022-10-03T07:48:45.239Z,4.60
2022-10-03T07:51:44.042Z,5.30
2022-10-03T07:55:01.734Z,8.93
2022-10-03T07:58:13.632Z,7.47
2022-10-03T08:01:24.711Z,5.67
2022-10-03T08:04:54.833Z,5.90
2022-10-03T08:08:02.975Z,18.03
2022-10-03T08:11:43.202Z,6.83
2022-10-03T08:14:48.013Z,7.30
2022-10-03T08:18:06.605Z,8.03
2022-10-03T08:20:58.378Z,9.33
2022-10-03T08:24:16.045Z,5.42
2022-10-03T08:27:24.399Z,5.30
2022-10-03T08:30:34.109Z,8.03
2022-10-03T08:33:56.661Z,6.33
2022-10-03T08:37:11.828Z,7.77
2022-10-03T08:40:41.952Z,7.43
2022-10-03T08:44:01.834Z,8.13
2022-10-03T08:47:31.879Z,9.83
2022-10-03T08:50:43.448Z,9.00
2022-10-03T08:54:04.675Z,8.27
2022-10-03T08:57:14.924Z,10.57
2022-10-03T09:00:15.272Z,7.37
2022-10-03T09:03:42.892Z,9.20
2022-10-03T09:07:18.653Z,6.43
2022-10-03T09:10:37.021Z,6.67
2022-10-03T09:14:03.257Z,12.77
2022-10-03T09:17:17.001Z,5.43
2022-10-03T09:20:27.464Z,8.40
2022-10-03T09:23:38.543Z,6.17
2022-10-03T09:27:04.772Z,4.97
2022-10-03T09:30:23.433Z,8.23
2022-10-03T09:33:59.345Z,8.50
2022-10-03T09:37:30.719Z,5.33
2022-10-03T09:44:01.448Z,6.30
2022-10-03T09:47:27.765Z,3.00
2022-10-03T09:50:54.888Z,4.77
2022-10-03T09:54:23.178Z,4.67
2022-10-03T09:57:44.290Z,2.17
2022-10-03T10:00:50.494Z,4.47
2022-10-03T10:04:08.734Z,3.50
2022-10-03T10:07:45.170Z,2.70
2022-10-03T10:10:56.736Z,2.67
2022-10-03T10:14:23.915Z,4.03
2022-10-03T10:17:45.642Z,3.77
2022-10-03T10:21:19.864Z,2.87
2022-10-03T10:24:46.097Z,2.57
2022-10-03T10:28:11.988Z,3.43
2022-10-03T10:31:45.573Z,3.97
2022-10-03T10:34:59.884Z,1.93
2022-10-03T10:38:24.691Z,3.10
2022-10-03T10:41:58.700Z,3.03
2022-10-03T10:45:25.192Z,2.37
2022-10-03T10:48:46.462Z,3.13
2022-10-03T10:52:32.761Z,2.63
2022-10-03T10:56:03.090Z,2.43
2022-10-03T10:59:27.696Z,4.97
2022-10-03T11:02:48.593Z,2.80
2022-10-03T11:06:18.921Z,3.65
2022-10-03T11:09:41.680Z,2.77
2022-10-03T11:13:20.200Z,11.00
2022-10-03T11:16:53.423Z,2.17
2022-10-03T11:20:15.939Z,8.73
2022-10-03T11:23:52.622Z,5.50
2022-10-03T11:27:17.624Z,5.07
2022-10-03T11:30:20.921Z,4.73
2022-10-03T11:33:48.799Z,4.10
2022-10-03T11:37:17.280Z,4.10
2022-10-03T11:40:23.851Z,4.50
2022-10-03T11:43:52.769Z,4.60
2022-10-03T11:47:07.919Z,12.77
2022-10-03T11:50:25.963Z,4.87
2022-10-03T11:53:23.181Z,7.00
2022-10-03T11:56:40.684Z,3.73
2022-10-03T11:59:42.214Z,4.17
2022-10-03T12:03:00.303Z,3.87
2022-10-03T12:06:14.186Z,7.43
2022-10-03T12:09:15.433Z,8.70
2022-10-03T12:12:11.911Z,1.63
2022-10-03T12:15:14.450Z,3.03
2022-10-03T12:18:11.462Z,1.50
2022-10-03T12:21:10.127Z,1.13
2022-10-03T12:24:21.239Z,4.13
2022-10-03T12:27:21.617Z,3.47
2022-10-03T12:30:16.322Z,1.97
2022-10-03T12:33:19.714Z,3.83
2022-10-03T12:36:14.964Z,3.67
2022-10-03T12:39:20.379Z,3.83
2022-10-03T12:42:26.258Z,2.90
2022-10-03T12:45:25.200Z,1.90
2022-10-03T12:48:27.970Z,2.43
2022-10-03T12:51:43.237Z,3.27
2022-10-03T12:54:50.190Z,1.13
2022-10-03T12:57:50.703Z,2.43
2022-10-03T13:00:50.247Z,2.20
2022-10-03T13:03:51.823Z,2.70
2022-10-03T13:07:03.392Z,2.15
2022-10-03T13:10:03.963Z,3.00
2022-10-03T13:13:01.502Z,2.17
2022-10-03T13:16:24.113Z,2.67
2022-10-03T13:19:18.072Z,5.73
2022-10-03T13:22:25.726Z,2.73
2022-10-03T13:25:21.207Z,2.90
2022-10-03T13:28:16.374Z,3.00
2022-10-03T13:31:12.623Z,1.20
2022-10-03T13:34:06.670Z,3.00
2022-10-03T13:37:04.522Z,3.10
2022-10-03T13:39:55.327Z,2.10
2022-10-03T13:42:50.561Z,5.60
2022-10-03T13:45:44.177Z,2.73
2022-10-03T13:48:34.496Z,0.70
2022-10-03T13:51:32.458Z,0.77
2022-10-03T13:54:39.035Z,1.60
2022-10-03T13:57:34.093Z,2.40
2022-10-03T14:00:27.718Z,3.50
2022-10-03T14:03:29.425Z,1.03
2022-10-03T14:06:26.004Z,1.80
2022-10-03T14:09:40.771Z,1.60
2022-10-03T14:12:55.307Z,1.57
2022-10-03T14:15:53.376Z,1.27
2022-10-03T14:18:52.295Z,2.27
2022-10-03T14:22:22.835Z,3.67
2022-10-03T14:25:22.614Z,2.13
2022-10-03T14:28:20.492Z,1.80
2022-10-03T14:31:15.929Z,1.23
2022-10-03T14:34:15.433Z,1.80
2022-10-03T14:37:18.493Z,1.37
2022-10-03T14:40:17.284Z,1.90
2022-10-03T14:43:28.859Z,2.23
2022-10-03T14:46:23.736Z,2.87
2022-10-03T14:49:51.100Z,2.83
2022-10-03T14:52:38.791Z,1.27
2022-10-03T14:55:31.863Z,1.17
2022-10-03T14:58:23.824Z,1.03
2022-10-03T15:04:06.265Z,2.30
2022-10-03T15:06:56.817Z,3.43
2022-10-03T15:09:49.877Z,2.80
2022-10-03T15:12:42.060Z,2.23
2022-10-03T15:15:35.458Z,1.10
2022-10-03T15:18:26.023Z,1.77
2022-10-03T15:21:18.240Z,3.03
2022-10-03T15:24:12.294Z,1.97
2022-10-03T15:27:04.395Z,2.17
2022-10-03T15:29:57.441Z,1.33
2022-10-03T15:32:49.231Z,4.47
2022-10-03T15:38:35.809Z,2.00
2022-10-03T15:41:35.623Z,2.07
2022-10-03T15:44:33.184Z,6.63
2022-10-03T15:47:24.004Z,6.33
2022-10-03T15:50:21.839Z,8.45
2022-10-03T15:53:34.886Z,7.65
2022-10-03T15:56:27.629Z,5.27
2022-10-03T15:59:22.827Z,7.93
2022-10-03T16:02:19.944Z,5.60
2022-10-03T16:05:21.030Z,9.13
2022-10-03T16:08:16.746Z,9.77
2022-10-03T16:11:14.062Z,6.87
2022-10-03T16:14:22.066Z,8.07
2022-10-03T16:17:18.449Z,7.67
2022-10-03T16:20:18.052Z,7.80
2022-10-03T16:23:17.462Z,8.57
2022-10-03T16:26:12.763Z,6.90
2022-10-03T16:29:13.605Z,12.10
2022-10-03T16:32:06.942Z,10.63
2022-10-03T16:35:00.526Z,12.10
2022-10-03T16:37:52.519Z,12.23
2022-10-03T16:40:41.100Z,12.20
2022-10-03T16:43:32.278Z,11.50
2022-10-03T16:46:23.468Z,13.00
2022-10-03T16:49:47.521Z,15.83
2022-10-03T16:52:39.545Z,7.50
2022-10-03T16:55:32.515Z,12.63
2022-10-03T16:58:27.694Z,10.77
2022-10-03T17:01:27.943Z,15.10
2022-10-03T17:04:23.039Z,15.00
2022-10-03T17:07:21.929Z,11.27
2022-10-03T17:10:30.042Z,11.80
2022-10-03T17:13:24.737Z,13.67
2022-10-03T17:16:24.824Z,11.13
2022-10-03T17:19:33.081Z,9.73
2022-10-03T17:22:26.380Z,12.87
2022-10-03T17:25:35.206Z,10.33
2022-10-03T17:28:38.437Z,10.73
2022-10-03T17:31:33.476Z,9.43
2022-10-03T17:34:28.312Z,14.33
2022-10-03T17:37:41.923Z,8.83
2022-10-03T17:40:49.484Z,11.20
2022-10-03T17:43:46.232Z,6.50
2022-10-03T17:46:42.903Z,10.17
2022-10-03T17:49:45.023Z,10.23
2022-10-03T17:52:36.830Z,8.77
2022-10-03T17:55:30.947Z,12.67
2022-10-03T17:58:25.021Z,8.87
2022-10-03T18:01:17.487Z,13.00
2022-10-03T18:04:14.820Z,8.23
2022-10-03T18:07:09.778Z,11.63
2022-10-03T18:10:00.188Z,13.20
2022-10-03T18:12:51.720Z,10.53
2022-10-03T18:15:57.336Z,11.75
2022-10-03T18:19:05.047Z,8.47
2022-10-03T18:22:14.202Z,11.23
2022-10-03T18:25:27.858Z,10.17
2022-10-03T18:28:23.184Z,11.27
2022-10-03T18:31:17.325Z,10.70
2022-10-03T18:34:13.701Z,9.53
2022-10-03T18:37:17.486Z,9.30
2022-10-03T18:40:18.126Z,9.57
2022-10-03T18:43:07.899Z,11.53
2022-10-03T18:46:03.607Z,14.83
2022-10-03T18:49:30.090Z,12.73
2022-10-03T18:52:19.567Z,11.83
2022-10-03T18:55:19.264Z,10.03
2022-10-03T18:58:18.456Z,25.73
2022-10-03T19:01:16.900Z,15.37
2022-10-03T19:04:10.879Z,12.33
2022-10-03T19:07:01.864Z,13.63
2022-10-03T19:10:17.903Z,14.90
2022-10-03T19:13:17.926Z,14.20
2022-10-03T19:16:19.145Z,11.43
2022-10-03T19:19:12.838Z,14.87
2022-10-03T19:22:05.478Z,15.00
2022-10-03T19:24:59.112Z,11.70
2022-10-03T19:27:52.891Z,12.20
2022-10-03T19:30:42.398Z,12.30
2022-10-03T19:33:37.084Z,14.63
2022-10-03T19:36:29.662Z,13.13
2022-10-03T19:39:20.134Z,9.10
2022-10-03T19:42:28.134Z,10.73
2022-10-03T19:45:19.446Z,13.07
2022-10-03T19:48:12.049Z,13.35
2022-10-03T19:53:57.900Z,12.00
2022-10-03T19:56:47.473Z,15.30
2022-10-03T19:59:45.697Z,15.40
2022-10-03T20:02:34.875Z,10.93
2022-10-03T20:05:27.282Z,15.77
2022-10-03T20:08:26.231Z,11.22
2022-10-03T20:11:27.309Z,15.57
2022-10-03T20:14:23.138Z,12.00
2022-10-03T20:17:15.594Z,11.10
2022-10-03T20:20:09.172Z,13.30
2022-10-03T20:23:04.776Z,12.57
2022-10-03T20:25:58.453Z,13.33
2022-10-03T20:29:04.468Z,11.87
2022-10-03T20:31:59.974Z,14.10
2022-10-03T20:34:54.425Z,11.33
2022-10-03T20:37:52.650Z,15.70
2022-10-03T20:40:44.884Z,13.77
2022-10-03T20:43:43.415Z,14.55
2022-10-03T20:46:40.127Z,14.63
2022-10-03T20:49:32.909Z,15.30
2022-10-03T20:52:23.864Z,16.07
2022-10-03T20:55:21.579Z,11.20
2022-10-03T20:58:18.575Z,11.07
2022-10-03T21:01:11.641Z,12.13
2022-10-03T21:04:10.936Z,13.77
2022-10-03T21:07:04.038Z,13.83
2022-10-03T21:10:00.534Z,12.07
2022-10-03T21:12:51.635Z,13.77
2022-10-03T21:15:46.221Z,14.57
2022-10-03T21:18:38.169Z,11.53
2022-10-03T21:21:33.839Z,12.82
2022-10-03T21:24:28.366Z,11.20
2022-10-03T21:27:19.911Z,12.03
2022-10-03T21:30:18.121Z,9.27
2022-10-03T21:33:12.246Z,13.70
2022-10-03T21:36:08.956Z,12.80
2022-10-03T21:39:05.661Z,10.70
2022-10-03T21:42:06.357Z,12.40
2022-10-03T21:45:22.552Z,11.40
2022-10-03T21:48:21.922Z,10.83
2022-10-03T21:51:26.692Z,11.60
2022-10-03T21:54:30.964Z,9.50
2022-10-03T21:57:30.213Z,9.90
2022-10-03T22:00:20.191Z,8.13
2022-10-03T22:03:16.887Z,9.97
2022-10-03T22:06:13.683Z,8.50
2022-10-03T22:09:04.683Z,8.47
2022-10-03T22:11:58.752Z,7.77
2022-10-03T22:14:53.050Z,9.73
2022-10-03T22:17:50.607Z,9.67
2022-10-03T22:20:53.699Z,8.60
2022-10-03T22:23:54.334Z,8.33
2022-10-03T22:26:49.560Z,8.60
2022-10-03T22:29:44.924Z,10.67
2022-10-03T22:32:40.631Z,8.97
2022-10-03T22:35:46.829Z,7.60
2022-10-03T22:38:36.613Z,9.57
2022-10-03T22:41:30.901Z,8.53
2022-10-03T22:44:23.238Z,9.13
2022-10-03T22:47:17.594Z,10.98
2022-10-03T22:50:13.029Z,9.30
2022-10-03T22:53:04.158Z,12.70
2022-10-03T22:55:58.379Z,7.90
2022-10-03T22:58:47.174Z,9.30
2022-10-03T23:01:38.183Z,8.30
2022-10-03T23:04:32.877Z,9.40
2022-10-03T23:07:51.869Z,8.57
2022-10-03T23:10:54.799Z,8.27
2022-10-03T23:13:45.016Z,10.57
2022-10-03T23:16:48.485Z,9.07
2022-10-03T23:19:50.173Z,9.03
2022-10-03T23:22:43.159Z,7.90
2022-10-03T23:25:40.727Z,7.73
2022-10-03T23:28:43.267Z,7.90
2022-10-03T23:31:52.831Z,8.93
2022-10-03T23:35:09.948Z,9.60
2022-10-03T23:38:00.042Z,8.87
2022-10-03T23:40:50.306Z,9.20
2022-10-03T23:43:48.321Z,9.63
2022-10-03T23:46:37.945Z,9.90
2022-10-03T23:49:28.152Z,8.23
2022-10-03T23:52:21.957Z,9.93
2022-10-03T23:55:20.725Z,10.77
2022-10-03T23:58:28.027Z,8.43
